UAE777 YSSY-YPAD
Flight info
| Callsign | UAE777 |
|---|---|
| Flight time | 1h 43m |
| Altitude | 38000 |
| Route | GROOK1/16R KADOM H44 MAXEM Q60 KAKLU H309 AD |
| Aircraft | B77W/H-SDE1E2E3FGHIJ2J3J4J5M1RWXY/LB1D1 |
Departure
| Time | 2026-04-22 06:47 |
|---|---|
| Airport | Sydney Kingsford Smith International Airport (YSSY) |
Arrival
| Time | 2026-04-22 08:31 |
|---|---|
| Airport | Adelaide International Airport (YPAD) |
| Time | Latitude | Longitude | Altitude | Speed | Heading |
|---|---|---|---|---|---|
| 2026-04-22 06:28 | -33.94501 | 151.17069 | 35 ft | 0 kts | 164° |
| 2026-04-22 06:35 | -33.94485 | 151.17064 | 34 ft | 4 kts | 161° |
| 2026-04-22 06:35 | -33.94460 | 151.17052 | 33 ft | 4 kts | 154° |
| 2026-04-22 06:36 | -33.94436 | 151.17036 | 34 ft | 4 kts | 146° |
| 2026-04-22 06:36 | -33.94415 | 151.17016 | 34 ft | 4 kts | 130° |
| 2026-04-22 06:36 | -33.94403 | 151.16991 | 33 ft | 4 kts | 84° |
| 2026-04-22 06:36 | -33.94404 | 151.16985 | 33 ft | 0 kts | 74° |
| 2026-04-22 06:37 | -33.94403 | 151.16985 | 33 ft | 0 kts | 74° |
| 2026-04-22 06:41 | -33.94403 | 151.16986 | 35 ft | 1 kts | 74° |
| 2026-04-22 06:41 | -33.94401 | 151.16995 | 35 ft | 2 kts | 74° |
| 2026-04-22 06:42 | -33.94398 | 151.17010 | 35 ft | 2 kts | 74° |
| 2026-04-22 06:42 | -33.94392 | 151.17033 | 35 ft | 3 kts | 75° |
| 2026-04-22 06:42 | -33.94386 | 151.17061 | 33 ft | 4 kts | 75° |
| 2026-04-22 06:42 | -33.94378 | 151.17096 | 35 ft | 5 kts | 75° |
| 2026-04-22 06:43 | -33.94369 | 151.17137 | 35 ft | 5 kts | 75° |
| 2026-04-22 06:43 | -33.94358 | 151.17185 | 35 ft | 6 kts | 75° |
| 2026-04-22 06:43 | -33.94345 | 151.17239 | 35 ft | 7 kts | 71° |
| 2026-04-22 06:43 | -33.94315 | 151.17285 | 35 ft | 7 kts | 32° |
| 2026-04-22 06:44 | -33.94261 | 151.17296 | 34 ft | 9 kts | 355° |
| 2026-04-22 06:44 | -33.94194 | 151.17283 | 33 ft | 11 kts | 349° |
| 2026-04-22 06:44 | -33.94116 | 151.17263 | 33 ft | 12 kts | 348° |
| 2026-04-22 06:44 | -33.94036 | 151.17242 | 34 ft | 12 kts | 348° |
| 2026-04-22 06:45 | -33.93957 | 151.17222 | 34 ft | 12 kts | 348° |
| 2026-04-22 06:45 | -33.93875 | 151.17201 | 34 ft | 13 kts | 348° |
| 2026-04-22 06:45 | -33.93785 | 151.17179 | 34 ft | 14 kts | 348° |
| 2026-04-22 06:45 | -33.93691 | 151.17153 | 34 ft | 14 kts | 347° |
| 2026-04-22 06:46 | -33.93593 | 151.17126 | 34 ft | 15 kts | 347° |
| 2026-04-22 06:46 | -33.93501 | 151.17102 | 34 ft | 8 kts | 351° |
| 2026-04-22 06:46 | -33.93452 | 151.17137 | 34 ft | 9 kts | 56° |
| 2026-04-22 06:46 | -33.93429 | 151.17217 | 32 ft | 11 kts | 79° |
| 2026-04-22 06:47 | -33.93465 | 151.17293 | 32 ft | 11 kts | 154° |
| 2026-04-22 06:47 | -33.93597 | 151.17332 | 31 ft | 43 kts | 166° |
| 2026-04-22 06:47 | -33.94255 | 151.17501 | 36 ft | 148 kts | 168° |
| 2026-04-22 06:47 | -33.95439 | 151.17754 | 699 ft | 178 kts | 170° |
| 2026-04-22 06:48 | -33.96548 | 151.18105 | 2244 ft | 158 kts | 164° |
| 2026-04-22 06:48 | -33.97699 | 151.18143 | 2807 ft | 180 kts | 186° |
| 2026-04-22 06:48 | -33.99049 | 151.17927 | 3106 ft | 211 kts | 184° |
| 2026-04-22 06:48 | -34.00620 | 151.17743 | 3561 ft | 237 kts | 183° |
| 2026-04-22 06:49 | -34.02301 | 151.17559 | 4374 ft | 245 kts | 182° |
| 2026-04-22 06:49 | -34.04004 | 151.17835 | 5177 ft | 250 kts | 163° |
| 2026-04-22 06:49 | -34.05682 | 151.18482 | 6055 ft | 257 kts | 164° |
| 2026-04-22 06:49 | -34.07400 | 151.19072 | 7057 ft | 259 kts | 165° |
| 2026-04-22 06:50 | -34.09152 | 151.19658 | 7967 ft | 263 kts | 164° |
| 2026-04-22 06:50 | -34.10917 | 151.20247 | 8970 ft | 264 kts | 163° |
| 2026-04-22 06:50 | -34.12699 | 151.20843 | 9899 ft | 270 kts | 163° |
| 2026-04-22 06:50 | -34.14547 | 151.21460 | 10523 ft | 286 kts | 162° |
| 2026-04-22 06:51 | -34.16505 | 151.22115 | 11224 ft | 297 kts | 162° |
| 2026-04-22 06:51 | -34.18557 | 151.22514 | 11972 ft | 307 kts | 180° |
| 2026-04-22 06:51 | -34.20645 | 151.21834 | 13036 ft | 317 kts | 203° |
| 2026-04-22 06:51 | -34.22440 | 151.20239 | 14159 ft | 325 kts | 222° |
| 2026-04-22 06:52 | -34.23948 | 151.18135 | 15011 ft | 335 kts | 226° |
| 2026-04-22 06:52 | -34.25160 | 151.15697 | 15872 ft | 350 kts | 248° |
| 2026-04-22 06:52 | -34.25424 | 151.12735 | 16910 ft | 364 kts | 272° |
| 2026-04-22 06:52 | -34.24904 | 151.09718 | 17867 ft | 370 kts | 282° |
| 2026-04-22 06:53 | -34.23808 | 151.06845 | 18598 ft | 388 kts | 306° |
| 2026-04-22 06:53 | -34.21759 | 151.04687 | 19410 ft | 397 kts | 332° |
| 2026-04-22 06:53 | -34.19163 | 151.03554 | 20350 ft | 397 kts | 349° |
| 2026-04-22 06:53 | -34.16429 | 151.02953 | 21203 ft | 403 kts | 351° |
| 2026-04-22 06:54 | -34.13642 | 151.02360 | 22050 ft | 410 kts | 351° |
| 2026-04-22 06:54 | -34.10818 | 151.01722 | 22956 ft | 416 kts | 348° |
| 2026-04-22 06:54 | -34.07996 | 151.00850 | 23867 ft | 422 kts | 343° |
| 2026-04-22 06:54 | -34.05162 | 150.99855 | 24626 ft | 426 kts | 342° |
| 2026-04-22 06:55 | -34.02311 | 150.98843 | 25371 ft | 427 kts | 339° |
| 2026-04-22 06:55 | -33.99656 | 150.97160 | 25577 ft | 440 kts | 317° |
| 2026-04-22 06:55 | -33.97642 | 150.94359 | 25730 ft | 448 kts | 294° |
| 2026-04-22 06:55 | -33.96568 | 150.90850 | 26115 ft | 448 kts | 277° |
| 2026-04-22 06:56 | -33.96144 | 150.87133 | 26684 ft | 449 kts | 270° |
| 2026-04-22 06:56 | -33.95925 | 150.83418 | 27367 ft | 451 kts | 268° |
| 2026-04-22 06:56 | -33.95780 | 150.79646 | 28157 ft | 451 kts | 267° |
| 2026-04-22 06:56 | -33.95659 | 150.75869 | 28912 ft | 453 kts | 267° |
| 2026-04-22 06:57 | -33.95535 | 150.72067 | 29604 ft | 455 kts | 268° |
| 2026-04-22 06:57 | -33.95397 | 150.68243 | 30223 ft | 459 kts | 268° |
| 2026-04-22 06:57 | -33.95275 | 150.65159 | 30635 ft | 462 kts | 268° |
| 2026-04-22 06:57 | -33.95110 | 150.61282 | 31128 ft | 464 kts | 269° |
| 2026-04-22 06:58 | -33.94934 | 150.57396 | 31633 ft | 466 kts | 269° |
| 2026-04-22 06:58 | -33.94753 | 150.53503 | 32222 ft | 464 kts | 269° |
| 2026-04-22 06:58 | -33.94567 | 150.49645 | 32953 ft | 459 kts | 269° |
| 2026-04-22 06:58 | -33.94382 | 150.45823 | 33638 ft | 455 kts | 269° |
| 2026-04-22 06:59 | -33.94221 | 150.42476 | 34274 ft | 451 kts | 269° |
| 2026-04-22 06:59 | -33.94064 | 150.39235 | 34815 ft | 448 kts | 269° |
| 2026-04-22 06:59 | -33.93912 | 150.36078 | 35136 ft | 449 kts | 269° |
| 2026-04-22 06:59 | -33.93743 | 150.32564 | 35514 ft | 448 kts | 269° |
| 2026-04-22 07:00 | -33.93598 | 150.29567 | 35935 ft | 446 kts | 269° |
| 2026-04-22 07:00 | -33.93453 | 150.26601 | 36435 ft | 441 kts | 269° |
| 2026-04-22 07:00 | -33.93310 | 150.23678 | 36762 ft | 442 kts | 269° |
| 2026-04-22 07:00 | -33.93169 | 150.20806 | 36969 ft | 444 kts | 269° |
| 2026-04-22 07:01 | -33.93028 | 150.17918 | 37265 ft | 444 kts | 270° |
| 2026-04-22 07:01 | -33.92881 | 150.14966 | 37746 ft | 438 kts | 270° |
| 2026-04-22 07:01 | -33.92737 | 150.12114 | 38244 ft | 435 kts | 270° |
| 2026-04-22 07:02 | -33.92452 | 150.06416 | 38315 ft | 443 kts | 270° |
| 2026-04-22 07:02 | -33.92160 | 150.00663 | 38298 ft | 444 kts | 270° |
| 2026-04-22 07:03 | -33.91855 | 149.94747 | 38310 ft | 438 kts | 270° |
| 2026-04-22 07:03 | -33.91542 | 149.88742 | 38327 ft | 433 kts | 270° |
| 2026-04-22 07:04 | -33.91188 | 149.81965 | 38317 ft | 431 kts | 270° |
| 2026-04-22 07:04 | -33.90808 | 149.74764 | 38324 ft | 432 kts | 270° |
| 2026-04-22 07:05 | -33.90422 | 149.67534 | 38318 ft | 434 kts | 270° |
| 2026-04-22 07:05 | -33.90030 | 149.60266 | 38319 ft | 436 kts | 270° |
| 2026-04-22 07:06 | -33.89631 | 149.52964 | 38314 ft | 438 kts | 271° |
| 2026-04-22 07:06 | -33.89226 | 149.45645 | 38314 ft | 440 kts | 271° |
| 2026-04-22 07:07 | -33.88814 | 149.38271 | 38305 ft | 441 kts | 271° |
| 2026-04-22 07:07 | -33.88397 | 149.30897 | 38300 ft | 442 kts | 271° |
| 2026-04-22 07:08 | -33.87980 | 149.23584 | 38290 ft | 441 kts | 271° |
| 2026-04-22 07:08 | -33.87554 | 149.16213 | 38291 ft | 441 kts | 271° |
| 2026-04-22 07:09 | -33.87127 | 149.08870 | 38296 ft | 440 kts | 271° |
| 2026-04-22 07:09 | -33.86695 | 149.01538 | 38276 ft | 440 kts | 271° |
| 2026-04-22 07:10 | -33.86260 | 148.94213 | 38289 ft | 439 kts | 271° |
| 2026-04-22 07:10 | -33.85822 | 148.86914 | 38276 ft | 439 kts | 271° |
| 2026-04-22 07:11 | -33.85398 | 148.79921 | 38276 ft | 438 kts | 271° |
| 2026-04-22 07:11 | -33.84983 | 148.73116 | 38280 ft | 438 kts | 272° |
| 2026-04-22 07:12 | -33.84778 | 148.65668 | 38286 ft | 435 kts | 265° |
| 2026-04-22 07:12 | -33.85562 | 148.58521 | 38295 ft | 433 kts | 257° |
| 2026-04-22 07:13 | -33.86721 | 148.51697 | 38290 ft | 434 kts | 257° |
| 2026-04-22 07:13 | -33.87900 | 148.44767 | 38276 ft | 435 kts | 257° |
| 2026-04-22 07:14 | -33.89038 | 148.37962 | 38287 ft | 436 kts | 257° |
| 2026-04-22 07:14 | -33.90177 | 148.31064 | 38284 ft | 437 kts | 257° |
| 2026-04-22 07:15 | -33.91231 | 148.24643 | 38288 ft | 437 kts | 258° |
| 2026-04-22 07:15 | -33.92142 | 148.19061 | 38292 ft | 437 kts | 258° |
| 2026-04-22 07:16 | -33.93438 | 148.11114 | 38283 ft | 438 kts | 258° |
| 2026-04-22 07:16 | -33.94515 | 148.04480 | 38288 ft | 438 kts | 258° |
| 2026-04-22 07:17 | -33.95558 | 147.98032 | 38283 ft | 438 kts | 258° |
| 2026-04-22 07:17 | -33.96487 | 147.92266 | 38278 ft | 438 kts | 258° |
| 2026-04-22 07:18 | -33.97605 | 147.85317 | 38270 ft | 438 kts | 258° |
| 2026-04-22 07:18 | -33.98638 | 147.78860 | 38290 ft | 437 kts | 258° |
| 2026-04-22 07:19 | -33.99747 | 147.71908 | 38272 ft | 437 kts | 258° |
| 2026-04-22 07:19 | -34.00895 | 147.64684 | 38279 ft | 436 kts | 258° |
| 2026-04-22 07:20 | -34.02032 | 147.57502 | 38287 ft | 436 kts | 258° |
| 2026-04-22 07:20 | -34.03165 | 147.50316 | 38283 ft | 437 kts | 258° |
| 2026-04-22 07:21 | -34.04295 | 147.43120 | 38290 ft | 437 kts | 258° |
| 2026-04-22 07:21 | -34.05414 | 147.35966 | 38275 ft | 438 kts | 259° |
| 2026-04-22 07:22 | -34.06539 | 147.28747 | 38295 ft | 438 kts | 259° |
| 2026-04-22 07:22 | -34.07661 | 147.21520 | 38291 ft | 439 kts | 259° |
| 2026-04-22 07:23 | -34.08779 | 147.14280 | 38287 ft | 439 kts | 259° |
| 2026-04-22 07:23 | -34.09895 | 147.07030 | 38279 ft | 440 kts | 259° |
| 2026-04-22 07:24 | -34.11009 | 146.99769 | 38284 ft | 441 kts | 259° |
| 2026-04-22 07:24 | -34.12120 | 146.92491 | 38289 ft | 441 kts | 259° |
| 2026-04-22 07:25 | -34.13227 | 146.85207 | 38284 ft | 442 kts | 259° |
| 2026-04-22 07:25 | -34.14331 | 146.77914 | 38282 ft | 442 kts | 259° |
| 2026-04-22 07:26 | -34.15430 | 146.70623 | 38288 ft | 442 kts | 259° |
| 2026-04-22 07:26 | -34.16526 | 146.63322 | 38282 ft | 442 kts | 259° |
| 2026-04-22 07:27 | -34.17618 | 146.56022 | 38284 ft | 442 kts | 259° |
| 2026-04-22 07:27 | -34.18705 | 146.48719 | 38283 ft | 442 kts | 259° |
| 2026-04-22 07:28 | -34.20329 | 146.37755 | 38286 ft | 442 kts | 259° |
| 2026-04-22 07:28 | -34.21399 | 146.30492 | 38284 ft | 442 kts | 259° |
| 2026-04-22 07:29 | -34.22478 | 146.23135 | 38282 ft | 442 kts | 259° |
| 2026-04-22 07:29 | -34.23539 | 146.15865 | 38283 ft | 442 kts | 259° |
| 2026-04-22 07:30 | -34.24604 | 146.08549 | 38288 ft | 442 kts | 259° |
| 2026-04-22 07:30 | -34.25606 | 146.01217 | 38279 ft | 442 kts | 261° |
| 2026-04-22 07:31 | -34.26503 | 145.93857 | 38280 ft | 443 kts | 261° |
| 2026-04-22 07:31 | -34.27390 | 145.86494 | 38280 ft | 443 kts | 261° |
| 2026-04-22 07:32 | -34.28285 | 145.79130 | 38282 ft | 443 kts | 261° |
| 2026-04-22 07:32 | -34.29184 | 145.71762 | 38279 ft | 443 kts | 261° |
| 2026-04-22 07:33 | -34.30082 | 145.64382 | 38279 ft | 444 kts | 261° |
| 2026-04-22 07:33 | -34.30977 | 145.56990 | 38284 ft | 445 kts | 261° |
| 2026-04-22 07:34 | -34.31868 | 145.49584 | 38269 ft | 445 kts | 261° |
| 2026-04-22 07:34 | -34.32757 | 145.42160 | 38279 ft | 446 kts | 261° |
| 2026-04-22 07:35 | -34.33642 | 145.34729 | 38280 ft | 447 kts | 261° |
| 2026-04-22 07:35 | -34.34523 | 145.27282 | 38281 ft | 447 kts | 261° |
| 2026-04-22 07:36 | -34.35400 | 145.19841 | 38278 ft | 446 kts | 261° |
| 2026-04-22 07:36 | -34.36271 | 145.12403 | 38286 ft | 446 kts | 261° |
| 2026-04-22 07:37 | -34.37137 | 145.04977 | 38278 ft | 445 kts | 261° |
| 2026-04-22 07:37 | -34.37996 | 144.97561 | 38283 ft | 445 kts | 261° |
| 2026-04-22 07:38 | -34.38851 | 144.90152 | 38275 ft | 444 kts | 261° |
| 2026-04-22 07:38 | -34.39698 | 144.82761 | 38277 ft | 443 kts | 261° |
| 2026-04-22 07:39 | -34.40541 | 144.75372 | 38276 ft | 443 kts | 261° |
| 2026-04-22 07:39 | -34.41378 | 144.67991 | 38285 ft | 442 kts | 261° |
| 2026-04-22 07:40 | -34.42210 | 144.60615 | 38274 ft | 442 kts | 261° |
| 2026-04-22 07:40 | -34.43032 | 144.53286 | 38276 ft | 442 kts | 261° |
| 2026-04-22 07:41 | -34.43856 | 144.45897 | 38280 ft | 442 kts | 261° |
| 2026-04-22 07:41 | -34.44675 | 144.38514 | 38270 ft | 442 kts | 261° |
| 2026-04-22 07:42 | -34.45490 | 144.31127 | 38271 ft | 442 kts | 261° |
| 2026-04-22 07:42 | -34.46301 | 144.23735 | 38270 ft | 442 kts | 261° |
| 2026-04-22 07:43 | -34.47106 | 144.16351 | 38286 ft | 442 kts | 261° |
| 2026-04-22 07:43 | -34.47907 | 144.08964 | 38270 ft | 442 kts | 261° |
| 2026-04-22 07:44 | -34.48703 | 144.01583 | 38268 ft | 442 kts | 261° |
| 2026-04-22 07:44 | -34.49494 | 143.94204 | 38270 ft | 441 kts | 261° |
| 2026-04-22 07:45 | -34.50280 | 143.86826 | 38275 ft | 441 kts | 261° |
| 2026-04-22 07:45 | -34.51061 | 143.79450 | 38272 ft | 441 kts | 261° |
| 2026-04-22 07:46 | -34.51839 | 143.72072 | 38265 ft | 441 kts | 261° |
| 2026-04-22 07:46 | -34.52611 | 143.64693 | 38279 ft | 441 kts | 261° |
| 2026-04-22 07:47 | -34.53379 | 143.57313 | 38271 ft | 441 kts | 261° |
| 2026-04-22 07:47 | -34.54143 | 143.49934 | 38267 ft | 441 kts | 261° |
| 2026-04-22 07:48 | -34.54901 | 143.42557 | 38281 ft | 441 kts | 261° |
| 2026-04-22 07:48 | -34.55655 | 143.35181 | 38275 ft | 441 kts | 261° |
| 2026-04-22 07:49 | -34.56405 | 143.27806 | 38267 ft | 440 kts | 261° |
| 2026-04-22 07:49 | -34.57149 | 143.20436 | 38273 ft | 440 kts | 261° |
| 2026-04-22 07:50 | -34.57888 | 143.13074 | 38274 ft | 439 kts | 261° |
| 2026-04-22 07:50 | -34.58622 | 143.05716 | 38272 ft | 439 kts | 261° |
| 2026-04-22 07:51 | -34.59345 | 142.98422 | 38266 ft | 438 kts | 262° |
| 2026-04-22 07:51 | -34.60068 | 142.91083 | 38271 ft | 438 kts | 262° |
| 2026-04-22 07:52 | -34.60786 | 142.83750 | 38264 ft | 437 kts | 262° |
| 2026-04-22 07:52 | -34.61498 | 142.76426 | 38260 ft | 437 kts | 262° |
| 2026-04-22 07:53 | -34.62207 | 142.69099 | 38267 ft | 437 kts | 262° |
| 2026-04-22 07:53 | -34.62910 | 142.61778 | 38265 ft | 436 kts | 262° |
| 2026-04-22 07:54 | -34.63605 | 142.54456 | 38260 ft | 436 kts | 263° |
| 2026-04-22 07:54 | -34.64077 | 142.47104 | 38255 ft | 437 kts | 265° |
| 2026-04-22 07:55 | -34.64447 | 142.39744 | 38262 ft | 437 kts | 265° |
| 2026-04-22 07:55 | -34.64831 | 142.32378 | 38262 ft | 437 kts | 265° |
| 2026-04-22 07:56 | -34.65233 | 142.25010 | 38260 ft | 438 kts | 264° |
| 2026-04-22 07:56 | -34.65639 | 142.17635 | 38259 ft | 438 kts | 264° |
| 2026-04-22 07:57 | -34.66042 | 142.10258 | 38259 ft | 438 kts | 264° |
| 2026-04-22 07:57 | -34.66441 | 142.02878 | 38248 ft | 438 kts | 264° |
| 2026-04-22 07:58 | -34.66834 | 141.95504 | 38254 ft | 438 kts | 264° |
| 2026-04-22 07:58 | -34.67223 | 141.88125 | 38252 ft | 438 kts | 264° |
| 2026-04-22 07:59 | -34.67607 | 141.80753 | 38250 ft | 438 kts | 264° |
| 2026-04-22 07:59 | -34.67987 | 141.73374 | 38254 ft | 437 kts | 264° |
| 2026-04-22 08:00 | -34.68362 | 141.66005 | 38256 ft | 437 kts | 264° |
| 2026-04-22 08:00 | -34.68733 | 141.58634 | 38251 ft | 437 kts | 264° |
| 2026-04-22 08:01 | -34.69099 | 141.51264 | 38247 ft | 437 kts | 264° |
| 2026-04-22 08:01 | -34.69461 | 141.43896 | 38250 ft | 437 kts | 264° |
| 2026-04-22 08:02 | -34.69818 | 141.36524 | 38248 ft | 437 kts | 264° |
| 2026-04-22 08:02 | -34.70171 | 141.29158 | 38249 ft | 435 kts | 264° |
| 2026-04-22 08:03 | -34.70344 | 141.25496 | 37948 ft | 434 kts | 264° |
| 2026-04-22 08:03 | -34.70516 | 141.21844 | 37474 ft | 431 kts | 265° |
| 2026-04-22 08:03 | -34.70684 | 141.18233 | 37021 ft | 425 kts | 265° |
| 2026-04-22 08:03 | -34.70849 | 141.14666 | 36555 ft | 421 kts | 265° |
| 2026-04-22 08:04 | -34.71013 | 141.11133 | 36123 ft | 417 kts | 265° |
| 2026-04-22 08:04 | -34.71119 | 141.08813 | 35818 ft | 414 kts | 265° |
| 2026-04-22 08:04 | -34.71278 | 141.05334 | 35349 ft | 411 kts | 265° |
| 2026-04-22 08:04 | -34.71436 | 141.01881 | 34909 ft | 408 kts | 265° |
| 2026-04-22 08:05 | -34.71590 | 140.98458 | 34465 ft | 405 kts | 265° |
| 2026-04-22 08:05 | -34.71743 | 140.95053 | 33987 ft | 402 kts | 265° |
| 2026-04-22 08:05 | -34.71894 | 140.91675 | 33501 ft | 399 kts | 265° |
| 2026-04-22 08:05 | -34.72042 | 140.88322 | 33046 ft | 396 kts | 265° |
| 2026-04-22 08:06 | -34.72188 | 140.85000 | 32605 ft | 392 kts | 264° |
| 2026-04-22 08:06 | -34.72330 | 140.81749 | 32176 ft | 389 kts | 264° |
| 2026-04-22 08:06 | -34.72472 | 140.78461 | 31751 ft | 387 kts | 264° |
| 2026-04-22 08:06 | -34.72613 | 140.75211 | 31334 ft | 384 kts | 264° |
| 2026-04-22 08:07 | -34.72753 | 140.71978 | 30919 ft | 382 kts | 264° |
| 2026-04-22 08:07 | -34.72891 | 140.68758 | 30501 ft | 380 kts | 264° |
| 2026-04-22 08:07 | -34.73027 | 140.65554 | 30047 ft | 379 kts | 264° |
| 2026-04-22 08:07 | -34.73161 | 140.62370 | 29576 ft | 376 kts | 264° |
| 2026-04-22 08:08 | -34.73294 | 140.59208 | 29139 ft | 373 kts | 264° |
| 2026-04-22 08:08 | -34.73424 | 140.56069 | 28705 ft | 370 kts | 264° |
| 2026-04-22 08:08 | -34.73553 | 140.52959 | 28281 ft | 367 kts | 264° |
| 2026-04-22 08:08 | -34.73680 | 140.49870 | 27870 ft | 365 kts | 264° |
| 2026-04-22 08:09 | -34.73806 | 140.46801 | 27453 ft | 362 kts | 263° |
| 2026-04-22 08:09 | -34.73930 | 140.43751 | 27046 ft | 360 kts | 263° |
| 2026-04-22 08:09 | -34.74052 | 140.40721 | 26635 ft | 358 kts | 263° |
| 2026-04-22 08:09 | -34.74174 | 140.37706 | 26232 ft | 356 kts | 263° |
| 2026-04-22 08:10 | -34.74293 | 140.34708 | 25832 ft | 354 kts | 263° |
| 2026-04-22 08:10 | -34.74412 | 140.31723 | 25426 ft | 353 kts | 263° |
| 2026-04-22 08:10 | -34.74529 | 140.28754 | 25029 ft | 351 kts | 262° |
| 2026-04-22 08:10 | -34.74645 | 140.25791 | 24631 ft | 350 kts | 262° |
| 2026-04-22 08:11 | -34.74760 | 140.22843 | 24238 ft | 349 kts | 262° |
| 2026-04-22 08:11 | -34.74874 | 140.19895 | 23821 ft | 349 kts | 262° |
| 2026-04-22 08:11 | -34.74988 | 140.16955 | 23353 ft | 347 kts | 262° |
| 2026-04-22 08:11 | -34.75099 | 140.14068 | 22937 ft | 345 kts | 263° |
| 2026-04-22 08:12 | -34.75210 | 140.11159 | 22521 ft | 343 kts | 263° |
| 2026-04-22 08:12 | -34.75318 | 140.08272 | 22128 ft | 341 kts | 263° |
| 2026-04-22 08:12 | -34.75426 | 140.05406 | 21727 ft | 338 kts | 263° |
| 2026-04-22 08:12 | -34.75532 | 140.02557 | 21340 ft | 336 kts | 264° |
| 2026-04-22 08:13 | -34.75636 | 139.99727 | 20953 ft | 334 kts | 264° |
| 2026-04-22 08:13 | -34.75741 | 139.96912 | 20551 ft | 332 kts | 264° |
| 2026-04-22 08:13 | -34.75843 | 139.94111 | 20171 ft | 331 kts | 265° |
| 2026-04-22 08:13 | -34.75945 | 139.91323 | 19789 ft | 329 kts | 265° |
| 2026-04-22 08:14 | -34.76046 | 139.88544 | 19402 ft | 328 kts | 265° |
| 2026-04-22 08:14 | -34.76145 | 139.85779 | 19022 ft | 327 kts | 266° |
| 2026-04-22 08:14 | -34.76243 | 139.83024 | 18642 ft | 326 kts | 266° |
| 2026-04-22 08:14 | -34.76341 | 139.80275 | 18201 ft | 325 kts | 266° |
| 2026-04-22 08:15 | -34.76437 | 139.77533 | 17781 ft | 324 kts | 266° |
| 2026-04-22 08:15 | -34.76532 | 139.74809 | 17384 ft | 322 kts | 266° |
| 2026-04-22 08:15 | -34.76626 | 139.72100 | 16994 ft | 320 kts | 266° |
| 2026-04-22 08:15 | -34.76719 | 139.69409 | 16615 ft | 318 kts | 266° |
| 2026-04-22 08:16 | -34.76811 | 139.66733 | 16233 ft | 316 kts | 266° |
| 2026-04-22 08:16 | -34.76902 | 139.64070 | 15861 ft | 314 kts | 266° |
| 2026-04-22 08:16 | -34.76991 | 139.61421 | 15490 ft | 313 kts | 266° |
| 2026-04-22 08:16 | -34.77080 | 139.58781 | 15120 ft | 312 kts | 266° |
| 2026-04-22 08:17 | -34.77168 | 139.56147 | 14751 ft | 311 kts | 266° |
| 2026-04-22 08:17 | -34.77256 | 139.53523 | 14372 ft | 310 kts | 266° |
| 2026-04-22 08:17 | -34.77343 | 139.50903 | 14004 ft | 310 kts | 266° |
| 2026-04-22 08:17 | -34.77430 | 139.48288 | 13597 ft | 309 kts | 266° |
| 2026-04-22 08:18 | -34.77514 | 139.45682 | 13211 ft | 308 kts | 265° |
| 2026-04-22 08:18 | -34.77598 | 139.43089 | 12832 ft | 306 kts | 266° |
| 2026-04-22 08:18 | -34.77679 | 139.40509 | 12460 ft | 304 kts | 266° |
| 2026-04-22 08:18 | -34.77745 | 139.37946 | 12095 ft | 303 kts | 266° |
| 2026-04-22 08:19 | -34.77805 | 139.35393 | 11724 ft | 301 kts | 267° |
| 2026-04-22 08:19 | -34.77863 | 139.32885 | 11377 ft | 300 kts | 267° |
| 2026-04-22 08:19 | -34.77916 | 139.30550 | 11047 ft | 298 kts | 267° |
| 2026-04-22 08:19 | -34.77973 | 139.28033 | 10688 ft | 297 kts | 267° |
| 2026-04-22 08:20 | -34.78030 | 139.25503 | 10393 ft | 293 kts | 266° |
| 2026-04-22 08:20 | -34.78085 | 139.23078 | 10182 ft | 287 kts | 266° |
| 2026-04-22 08:20 | -34.78139 | 139.20682 | 9955 ft | 281 kts | 266° |
| 2026-04-22 08:20 | -34.78193 | 139.18297 | 9538 ft | 282 kts | 267° |
| 2026-04-22 08:21 | -34.78247 | 139.15921 | 9193 ft | 281 kts | 267° |
| 2026-04-22 08:21 | -34.78300 | 139.13551 | 8848 ft | 279 kts | 267° |
| 2026-04-22 08:21 | -34.78352 | 139.11205 | 8528 ft | 277 kts | 267° |
| 2026-04-22 08:21 | -34.78403 | 139.08865 | 8199 ft | 276 kts | 268° |
| 2026-04-22 08:22 | -34.78454 | 139.06532 | 7879 ft | 275 kts | 269° |
| 2026-04-22 08:22 | -34.78503 | 139.04211 | 7543 ft | 275 kts | 269° |
| 2026-04-22 08:22 | -34.78553 | 139.01891 | 7231 ft | 274 kts | 270° |
| 2026-04-22 08:22 | -34.78602 | 138.99574 | 6899 ft | 274 kts | 270° |
| 2026-04-22 08:23 | -34.78649 | 138.97258 | 6575 ft | 274 kts | 270° |
| 2026-04-22 08:23 | -34.78696 | 138.94947 | 6238 ft | 273 kts | 270° |
| 2026-04-22 08:23 | -34.78744 | 138.92640 | 5910 ft | 272 kts | 270° |
| 2026-04-22 08:23 | -34.78791 | 138.90339 | 5573 ft | 272 kts | 271° |
| 2026-04-22 08:24 | -34.78836 | 138.88049 | 5252 ft | 270 kts | 270° |
| 2026-04-22 08:24 | -34.78881 | 138.85765 | 4936 ft | 270 kts | 270° |
| 2026-04-22 08:24 | -34.78926 | 138.83482 | 4605 ft | 269 kts | 269° |
| 2026-04-22 08:24 | -34.78971 | 138.81214 | 4315 ft | 267 kts | 269° |
| 2026-04-22 08:25 | -34.79013 | 138.78994 | 4195 ft | 259 kts | 269° |
| 2026-04-22 08:25 | -34.79091 | 138.76879 | 4069 ft | 240 kts | 261° |
| 2026-04-22 08:25 | -34.79731 | 138.75133 | 4008 ft | 216 kts | 234° |
| 2026-04-22 08:25 | -34.80616 | 138.73769 | 3971 ft | 196 kts | 233° |
| 2026-04-22 08:26 | -34.81475 | 138.72488 | 3739 ft | 195 kts | 232° |
| 2026-04-22 08:26 | -34.82329 | 138.71246 | 3506 ft | 193 kts | 231° |
| 2026-04-22 08:26 | -34.83189 | 138.70005 | 3264 ft | 190 kts | 231° |
| 2026-04-22 08:26 | -34.84035 | 138.68786 | 3052 ft | 187 kts | 231° |
| 2026-04-22 08:27 | -34.84875 | 138.67574 | 2763 ft | 186 kts | 230° |
| 2026-04-22 08:27 | -34.85705 | 138.66378 | 2499 ft | 177 kts | 229° |
| 2026-04-22 08:27 | -34.86468 | 138.65276 | 2290 ft | 162 kts | 229° |
| 2026-04-22 08:27 | -34.87148 | 138.64296 | 2105 ft | 143 kts | 230° |
| 2026-04-22 08:28 | -34.87762 | 138.63410 | 1958 ft | 139 kts | 230° |
| 2026-04-22 08:28 | -34.88399 | 138.62490 | 1747 ft | 146 kts | 230° |
| 2026-04-22 08:28 | -34.89044 | 138.61558 | 1543 ft | 143 kts | 229° |
| 2026-04-22 08:28 | -34.89682 | 138.60637 | 1361 ft | 141 kts | 229° |
| 2026-04-22 08:29 | -34.90321 | 138.59715 | 1178 ft | 144 kts | 229° |
| 2026-04-22 08:29 | -34.90966 | 138.58784 | 993 ft | 143 kts | 229° |
| 2026-04-22 08:29 | -34.91598 | 138.57857 | 796 ft | 141 kts | 229° |
| 2026-04-22 08:29 | -34.92227 | 138.56943 | 636 ft | 140 kts | 228° |
| 2026-04-22 08:30 | -34.92855 | 138.56058 | 422 ft | 136 kts | 227° |
| 2026-04-22 08:30 | -34.93475 | 138.55183 | 260 ft | 138 kts | 230° |
| 2026-04-22 08:30 | -34.94091 | 138.54285 | 68 ft | 137 kts | 230° |
| 2026-04-22 08:30 | -34.94667 | 138.53444 | 27 ft | 116 kts | 229° |
| 2026-04-22 08:31 | -34.95067 | 138.52863 | 31 ft | 57 kts | 230° |
| 2026-04-22 08:31 | -34.95204 | 138.52663 | 28 ft | 29 kts | 231° |
| 2026-04-22 08:31 | -34.95110 | 138.52455 | 27 ft | 14 kts | 349° |
| 2026-04-22 08:32 | -34.95012 | 138.52473 | 29 ft | 15 kts | 26° |
| 2026-04-22 08:32 | -34.94929 | 138.52548 | 28 ft | 16 kts | 37° |
| 2026-04-22 08:32 | -34.94841 | 138.52631 | 28 ft | 16 kts | 37° |
| 2026-04-22 08:32 | -34.94748 | 138.52716 | 30 ft | 17 kts | 37° |
| 2026-04-22 08:33 | -34.94653 | 138.52808 | 30 ft | 18 kts | 38° |
| 2026-04-22 08:33 | -34.94556 | 138.52899 | 28 ft | 18 kts | 38° |
| 2026-04-22 08:33 | -34.94462 | 138.52997 | 27 ft | 18 kts | 55° |
| 2026-04-22 08:33 | -34.94470 | 138.53141 | 28 ft | 18 kts | 122° |
| 2026-04-22 08:34 | -34.94515 | 138.53283 | 28 ft | 18 kts | 88° |
| 2026-04-22 08:34 | -34.94456 | 138.53417 | 27 ft | 18 kts | 50° |
| 2026-04-22 08:34 | -34.94373 | 138.53536 | 27 ft | 18 kts | 50° |
| 2026-04-22 08:34 | -34.94291 | 138.53655 | 28 ft | 18 kts | 50° |
| 2026-04-22 08:35 | -34.94210 | 138.53774 | 29 ft | 18 kts | 51° |
| 2026-04-22 08:35 | -34.94140 | 138.53875 | 30 ft | 11 kts | 44° |
| 2026-04-22 08:35 | -34.94070 | 138.53890 | 30 ft | 11 kts | 348° |
| 2026-04-22 08:35 | -34.93998 | 138.53921 | 30 ft | 12 kts | 45° |
| 2026-04-22 08:36 | -34.93947 | 138.53951 | 31 ft | 8 kts | 352° |
| 2026-04-22 08:36 | -34.93905 | 138.53915 | 32 ft | 5 kts | 320° |
| 2026-04-22 08:36 | -34.93889 | 138.53899 | 32 ft | 1 kts | 320° |
| 2026-04-22 08:36 | -34.93888 | 138.53898 | 32 ft | 0 kts | 320° |